Middleton, Canada
Current Conditions -  °F | °C
As of 1:00 AM on Saturday 20 Dec 2014 (Local Time) from CYZX Reporting Station
Overcast Overcast  
Wind Chill: 26°   Ceiling: 1900
Heat Index: 32°   Visibility: 10mi
Dew Point: 28°   Wind: 7mph
Humidity: 87%   Direction: 30°NNE
Pressure: 30.05"   Gusts: NA
Location:  44.94°N, 65.07°W
Report Text: CYZX 200500Z 03006KT 10SM OVC019 M00/M02 A3005 RMK SC8 WNDY HILL 04007G16KT SLP178
Loading
Personal Weather Stations






























Interactive Weather Map New forecast layout! Learn more

10-Day Weather Forecast

Advertisements
Track Severe Weather on mobile